Cranberry Lake, NY (12927)

9:45 PM EST on February 01, 2015 (GMT -0500)
RAWS WANAKENA NY US | Change Station
CLOSE
Current Station
Personal Weather Station
Location: Newton Falls, NY
Elevation: 1500 ft
Nearby Weather Stations
Active Advisory: Winter Storm Warning

Elev 1500 ft 44.17 °N, 74.90 °W | Updated 44 minutes ago

Overcast
Overcast
0 °F
Feels Like 0 °F
N
1
Wind Variable Wind from ESE
Gusts 3.0 mph

Today
High -- | Low -- °F
--% Chance of Precip.
Yesterday
High -- | Low -- °F
Precip. -- in
7:17 AM 5:08 PM
Waxing Gibbous, 97% visible
Pressure 30.13 in
Visibility 10.0 miles
Clouds Overcast 10000 ft
Windchill 0 °F
Dew Point -9 °F
Humidity 65%
Rainfall 0.00 in
Snow Depth Not available.
UV 0 out of 12
Pollen .10 out of 12
Air Quality Not available.
Flu Activity Not available.
METAR KSLK 020151Z AUTO 02004KT 10SM OVC100 M20/M23 A3000 RMK AO2 SLP203 T12001228

More Conditions Fewer Conditions

Pressure 30.13 in
Visibility 10.0 miles
Clouds Overcast 10000 ft
Windchill 0 °F
Dew Point -9 °F
Humidity 65%
Rainfall 0.00 in
Snow Depth Not available.
UV 0 out of 12
Pollen .10 out of 12
Air Quality Not available.
Flu Activity Not available.
METAR KSLK 020151Z AUTO 02004KT 10SM OVC100 M20/M23 A3000 RMK AO2 SLP203 T12001228

More Conditions Fewer Conditions

10-Day Weather Forecast

Almanac

Astronomy

Feb. 01, 2015 Rise Set
Actual Time
Civil Twilight
Nautical Twilight
Astronomical Twilight
Moon
Length of Visible Light
Length of Day
Tomorrow will be .
, % of the Moon is Illuminated

Today's Extremes

State Highs State Lows

Community

WunderPhotos

Upload Photos

1,792,659 photos uploaded!

WunderBlogs® & News

Nearby

Air Quality

  Air Quality AQ Index Pollutant
Not available.

Snow Depth

Station Depth Elevation

Earthquake Activity

City Distance Mag. Time & Date
Minimum magnitude displayed is 2.5.

Coastal Water Temperatures

Place Temperature

Nearby Weather Stations